createdAt,value
2017-08-08T08:34:39.470Z,74.20
2017-08-08T08:40:00.535Z,71.70
2017-08-08T08:42:27.346Z,73.00
2017-08-08T08:44:54.253Z,72.90
2017-08-08T08:47:21.106Z,73.00
2017-08-08T08:49:47.988Z,72.30
2017-08-08T08:52:14.988Z,71.80
2017-08-08T08:54:41.853Z,72.60
2017-08-08T08:57:10.221Z,70.10
2017-08-08T08:59:37.186Z,69.80
2017-08-08T09:02:04.129Z,69.30
2017-08-08T09:04:31.101Z,68.10
2017-08-08T09:06:57.963Z,68.70
2017-08-08T09:09:24.805Z,68.90
2017-08-08T09:11:51.761Z,70.40
2017-08-08T09:14:18.650Z,70.20
2017-08-08T09:16:45.534Z,70.90
2017-08-08T09:19:12.410Z,70.20
2017-08-08T09:21:39.890Z,70.90
2017-08-08T09:24:06.743Z,69.30
2017-08-08T09:26:33.706Z,66.90
2017-08-08T09:29:00.548Z,66.60
2017-08-08T09:31:27.454Z,66.40
2017-08-08T09:33:54.248Z,66.40
2017-08-08T09:36:21.068Z,65.60
2017-08-08T09:38:47.861Z,64.60
2017-08-08T09:41:14.660Z,63.80
2017-08-08T09:43:41.548Z,62.70
2017-08-08T09:46:08.484Z,62.20
2017-08-08T09:48:35.383Z,63.20
2017-08-08T09:51:02.344Z,62.10
2017-08-08T09:53:29.120Z,60.20
2017-08-08T09:55:55.985Z,59.30
2017-08-08T09:58:28.096Z,59.40
2017-08-08T10:01:00.616Z,58.20
2017-08-08T10:03:27.701Z,58.50
2017-08-08T10:05:55.256Z,58.70
2017-08-08T10:08:23.101Z,58.90
2017-08-08T10:11:05.431Z,58.50
2017-08-08T10:13:32.390Z,58.20
2017-08-08T10:15:59.676Z,56.30
2017-08-08T10:18:27.396Z,56.60
2017-08-08T10:20:54.230Z,56.90
2017-08-08T10:23:21.056Z,53.00
2017-08-08T10:25:47.810Z,54.50
2017-08-08T10:28:18.277Z,55.40
2017-08-08T10:30:46.151Z,55.30
2017-08-08T10:33:14.120Z,55.60
2017-08-08T10:35:40.947Z,54.90
2017-08-08T10:38:08.220Z,55.50
2017-08-08T10:40:35.085Z,55.90
2017-08-08T10:43:01.879Z,57.10
2017-08-08T10:45:28.646Z,58.20
2017-08-08T10:47:55.456Z,59.40
2017-08-08T10:50:23.773Z,59.60
2017-08-08T10:52:50.648Z,61.20
2017-08-08T10:55:17.524Z,61.00
2017-08-08T10:57:44.393Z,61.50
2017-08-08T11:00:11.215Z,60.60
2017-08-08T11:02:37.972Z,61.80
2017-08-08T11:05:04.732Z,61.30
2017-08-08T11:07:31.613Z,61.20
2017-08-08T11:09:59.221Z,60.00
2017-08-08T11:12:26.397Z,58.80
2017-08-08T11:14:56.050Z,58.60
2017-08-08T11:17:24.017Z,59.30
2017-08-08T11:19:50.851Z,58.10
2017-08-08T11:22:17.729Z,58.50
2017-08-08T11:24:44.603Z,60.60
2017-08-08T11:27:12.575Z,60.60
2017-08-08T11:29:39.780Z,61.70
2017-08-08T11:32:06.636Z,59.70
2017-08-08T11:34:33.683Z,60.90
2017-08-08T11:37:00.601Z,61.20
2017-08-08T11:39:27.464Z,62.20
2017-08-08T11:41:54.262Z,60.50
2017-08-08T11:44:21.961Z,62.00
2017-08-08T11:46:48.788Z,65.20
2017-08-08T11:49:15.758Z,62.70
2017-08-08T11:51:42.662Z,64.20
2017-08-08T11:54:09.441Z,61.90
2017-08-08T11:56:36.472Z,64.10
2017-08-08T11:59:03.413Z,61.70
2017-08-08T12:01:30.832Z,61.60
2017-08-08T12:03:58.180Z,61.30
2017-08-08T12:06:25.092Z,62.10
2017-08-08T12:08:52.275Z,62.20
2017-08-08T12:11:19.605Z,58.20
2017-08-08T12:13:46.450Z,57.00
2017-08-08T12:16:13.468Z,58.00
2017-08-08T12:18:40.976Z,58.40
2017-08-08T12:21:08.306Z,61.20
2017-08-08T12:23:35.742Z,62.20
2017-08-08T12:26:03.187Z,63.70
2017-08-08T12:28:30.065Z,62.70
2017-08-08T12:30:57.272Z,64.20
2017-08-08T12:33:24.526Z,65.40
2017-08-08T12:35:51.434Z,66.50
2017-08-08T12:38:18.584Z,67.40
2017-08-08T12:40:45.372Z,69.10
2017-08-08T12:43:12.551Z,72.40
2017-08-08T12:45:39.544Z,74.20
2017-08-08T12:48:06.335Z,72.70
2017-08-08T12:50:33.272Z,74.30
2017-08-08T12:53:00.105Z,74.50
2017-08-08T12:55:28.159Z,75.20
2017-08-08T12:57:56.032Z,77.40
2017-08-08T13:00:23.718Z,76.90
2017-08-08T13:02:50.600Z,79.30
2017-08-08T13:05:18.790Z,79.20
2017-08-08T13:07:46.677Z,79.30
2017-08-08T13:10:16.366Z,79.50
2017-08-08T13:12:43.932Z,80.30
2017-08-08T13:15:11.122Z,78.70
2017-08-08T13:17:39.563Z,76.60
2017-08-08T13:20:06.758Z,76.60
2017-08-08T13:22:34.138Z,76.70
2017-08-08T13:25:01.510Z,80.00
2017-08-08T13:27:28.455Z,80.20
2017-08-08T13:29:55.655Z,79.00
2017-08-08T13:32:22.833Z,77.90
2017-08-08T13:34:49.682Z,77.20
2017-08-08T13:37:16.612Z,76.60
2017-08-08T13:39:43.766Z,78.70
2017-08-08T13:42:11.166Z,79.60
2017-08-08T13:44:37.974Z,75.80
2017-08-08T13:47:05.100Z,79.50
2017-08-08T13:49:32.364Z,78.00
2017-08-08T13:51:59.752Z,78.10
2017-08-08T13:54:26.688Z,78.70
2017-08-08T13:56:53.824Z,78.40
2017-08-08T13:59:21.672Z,78.20
2017-08-08T14:01:48.825Z,77.90
2017-08-08T14:04:15.709Z,78.20
2017-08-08T14:06:42.746Z,79.10
2017-08-08T14:09:09.900Z,78.50
2017-08-08T14:11:36.785Z,77.30
2017-08-08T14:14:03.684Z,79.10
2017-08-08T14:16:30.850Z,79.30
2017-08-08T14:18:58.186Z,80.20
2017-08-08T14:21:25.587Z,79.20
2017-08-08T14:23:52.368Z,80.10
2017-08-08T14:26:19.521Z,80.50
2017-08-08T14:28:46.307Z,79.80
2017-08-08T14:31:13.084Z,79.40
2017-08-08T14:33:40.550Z,80.00
2017-08-08T14:36:07.770Z,79.30
2017-08-08T14:38:35.151Z,78.50
2017-08-08T14:41:02.124Z,77.40
2017-08-08T14:43:28.958Z,81.10
2017-08-08T14:45:55.864Z,79.50
2017-08-08T14:48:22.690Z,78.60
2017-08-08T14:50:49.965Z,78.10
2017-08-08T14:53:16.967Z,75.80
2017-08-08T14:55:43.781Z,73.00
2017-08-08T14:58:10.620Z,73.10
2017-08-08T15:00:38.148Z,76.30
2017-08-08T15:03:05.143Z,77.30
2017-08-08T15:05:32.022Z,78.00
2017-08-08T15:07:59.300Z,77.80
2017-08-08T15:10:26.787Z,78.40
2017-08-08T15:12:53.685Z,79.20
2017-08-08T15:15:20.904Z,80.20
2017-08-08T15:17:48.488Z,80.90
2017-08-08T15:20:16.406Z,81.40
2017-08-08T15:22:44.151Z,81.50
2017-08-08T15:25:11.860Z,80.90
2017-08-08T15:27:38.698Z,80.90
2017-08-08T15:30:07.009Z,81.50
2017-08-08T15:32:34.476Z,81.80
2017-08-08T15:35:01.759Z,81.50
2017-08-08T15:37:28.591Z,81.70
2017-08-08T15:39:55.367Z,81.00
2017-08-08T15:42:22.723Z,80.40
2017-08-08T15:44:50.077Z,80.80
2017-08-08T15:47:16.840Z,80.40
2017-08-08T15:49:43.623Z,80.40
2017-08-08T15:52:10.464Z,79.90
2017-08-08T15:54:37.244Z,79.80
2017-08-08T15:57:04.029Z,80.60
2017-08-08T15:59:30.836Z,81.20
2017-08-08T16:01:58.063Z,81.20
2017-08-08T16:04:25.341Z,81.60
2017-08-08T16:06:52.196Z,81.60
2017-08-08T16:09:19.256Z,82.00
2017-08-08T16:11:46.461Z,83.10
2017-08-08T16:14:13.938Z,83.60
2017-08-08T16:16:40.866Z,83.20
2017-08-08T16:19:08.001Z,83.40
2017-08-08T16:21:35.284Z,83.50
2017-08-08T16:24:02.626Z,84.80
2017-08-08T16:26:29.475Z,85.10
2017-08-08T16:28:56.564Z,84.90
2017-08-08T16:31:23.380Z,86.00
2017-08-08T16:33:50.380Z,85.00
2017-08-08T16:36:17.545Z,85.30
2017-08-08T16:38:44.341Z,85.60
2017-08-08T16:41:11.291Z,84.90
2017-08-08T16:43:38.412Z,86.90
2017-08-08T16:46:05.728Z,87.30
2017-08-08T16:48:33.130Z,87.10
2017-08-08T16:51:00.485Z,87.30
2017-08-08T16:53:27.621Z,88.20
2017-08-08T16:55:54.471Z,89.10
2017-08-08T16:58:21.380Z,88.10
2017-08-08T17:00:48.433Z,88.70
2017-08-08T17:03:15.600Z,88.30
2017-08-08T17:05:44.018Z,89.00
2017-08-08T17:08:10.864Z,88.40
2017-08-08T17:10:37.702Z,87.90
2017-08-08T17:13:04.764Z,87.30
2017-08-08T17:15:31.868Z,87.30
2017-08-08T17:17:59.230Z,87.60
2017-08-08T17:20:26.704Z,88.70
2017-08-08T17:22:53.520Z,89.20
2017-08-08T17:25:21.314Z,89.00
2017-08-08T17:27:49.063Z,90.00
2017-08-08T17:30:16.184Z,90.10
2017-08-08T17:32:43.064Z,90.10
2017-08-08T17:35:10.131Z,90.20
2017-08-08T17:37:37.236Z,89.30
2017-08-08T17:40:04.416Z,89.70
2017-08-08T17:42:32.248Z,90.50
2017-08-08T17:44:59.164Z,90.70
2017-08-08T17:47:27.313Z,90.40
2017-08-08T17:49:55.352Z,90.50
2017-08-08T17:52:22.934Z,90.40
2017-08-08T17:54:50.410Z,90.20
2017-08-08T17:57:17.752Z,90.40
2017-08-08T17:59:44.745Z,90.70
2017-08-08T18:02:12.933Z,90.60
2017-08-08T18:04:39.900Z,90.40
2017-08-08T18:07:07.440Z,90.20
2017-08-08T18:09:34.605Z,90.10
2017-08-08T18:12:03.459Z,90.40
2017-08-08T18:14:30.291Z,90.40
2017-08-08T18:16:57.492Z,90.50
2017-08-08T18:19:24.650Z,90.30
2017-08-08T18:21:51.587Z,90.30
2017-08-08T18:24:19.915Z,90.40
2017-08-08T18:26:46.836Z,90.70
2017-08-08T18:29:14.642Z,90.70
2017-08-08T18:31:41.485Z,90.70
2017-08-08T18:34:08.523Z,90.50
2017-08-08T18:36:36.179Z,90.40
2017-08-08T18:39:03.142Z,90.70
2017-08-08T18:41:32.271Z,90.80
2017-08-08T18:43:59.949Z,90.60
2017-08-08T18:46:27.183Z,90.60
2017-08-08T18:48:54.991Z,90.50
2017-08-08T18:51:21.900Z,90.60
2017-08-08T18:53:49.219Z,90.60
2017-08-08T18:56:16.609Z,90.60
2017-08-08T18:58:45.184Z,90.50
2017-08-08T19:01:12.324Z,90.50
2017-08-08T19:03:41.030Z,90.50
2017-08-08T19:06:08.224Z,90.40
2017-08-08T19:08:35.302Z,90.00
2017-08-08T19:11:02.185Z,90.20
2017-08-08T19:13:32.688Z,90.50
2017-08-08T19:16:00.131Z,90.40
2017-08-08T19:18:27.438Z,90.70
2017-08-08T19:20:54.416Z,90.90
2017-08-08T19:23:21.722Z,91.10
2017-08-08T19:25:48.666Z,91.00
2017-08-08T19:28:15.925Z,91.00
2017-08-08T19:30:42.777Z,90.80
2017-08-08T19:33:09.921Z,90.60
2017-08-08T19:35:37.078Z,91.10
2017-08-08T19:38:03.927Z,91.00
2017-08-08T19:40:31.027Z,90.90
2017-08-08T19:42:58.208Z,91.00
2017-08-08T19:45:25.465Z,90.80
2017-08-08T19:47:52.841Z,90.80
2017-08-08T19:50:19.634Z,90.80
2017-08-08T19:52:46.907Z,90.80
2017-08-08T19:55:14.184Z,90.80
2017-08-08T19:57:41.544Z,90.90
2017-08-08T20:00:08.510Z,90.80
2017-08-08T20:02:35.280Z,91.00
2017-08-08T20:05:02.632Z,90.90
2017-08-08T20:07:30.252Z,90.80
2017-08-08T20:09:57.130Z,90.80
2017-08-08T20:12:24.328Z,90.90
2017-08-08T20:14:51.204Z,90.80
2017-08-08T20:17:18.120Z,91.10
2017-08-08T20:19:45.211Z,91.10
2017-08-08T20:22:12.487Z,91.20
2017-08-08T20:24:39.258Z,91.30
2017-08-08T20:27:06.030Z,91.10
2017-08-08T20:29:33.359Z,90.90
2017-08-08T20:32:00.840Z,90.90
2017-08-08T20:34:28.501Z,91.00
2017-08-08T20:36:56.063Z,91.10
2017-08-08T20:39:23.309Z,91.00
2017-08-08T20:41:50.381Z,90.80
2017-08-08T20:44:17.733Z,90.40
2017-08-08T20:46:45.057Z,90.60
2017-08-08T20:49:12.439Z,90.70
2017-08-08T20:51:39.307Z,90.90
2017-08-08T20:54:10.295Z,90.90
2017-08-08T20:56:37.153Z,91.00
2017-08-08T20:59:04.173Z,91.00
2017-08-08T21:01:31.457Z,91.00
2017-08-08T21:03:58.246Z,91.10
2017-08-08T21:06:25.192Z,90.80
2017-08-08T21:08:52.504Z,90.70
2017-08-08T21:11:19.865Z,90.60
2017-08-08T21:13:47.061Z,90.80
2017-08-08T21:16:14.122Z,90.90
2017-08-08T21:18:41.313Z,90.90
2017-08-08T21:21:08.590Z,90.60
2017-08-08T21:23:35.397Z,90.70
2017-08-08T21:26:02.437Z,90.70
2017-08-08T21:28:29.283Z,90.70
2017-08-08T21:30:56.681Z,90.60
2017-08-08T21:33:23.531Z,90.70
2017-08-08T21:35:50.914Z,90.70
2017-08-08T21:38:18.092Z,90.70
2017-08-08T21:40:44.980Z,90.90
2017-08-08T21:43:12.108Z,91.00
2017-08-08T21:45:39.377Z,91.00
2017-08-08T21:48:06.624Z,90.90
2017-08-08T21:50:34.119Z,90.90
2017-08-08T21:53:01.672Z,90.80
2017-08-08T21:55:28.519Z,90.80
2017-08-08T21:57:55.716Z,91.10
2017-08-08T22:00:23.037Z,91.10
2017-08-08T22:02:50.594Z,91.10
2017-08-08T22:05:19.230Z,91.10
2017-08-08T22:07:46.951Z,91.00
2017-08-08T22:10:14.693Z,91.00
2017-08-08T22:12:41.816Z,90.90
2017-08-08T22:15:09.660Z,91.00
2017-08-08T22:17:37.220Z,91.00
2017-08-08T22:20:03.995Z,91.00
2017-08-08T22:22:30.910Z,91.00
2017-08-08T22:24:58.518Z,91.10
2017-08-08T22:27:25.284Z,91.00
2017-08-08T22:29:52.048Z,91.00
2017-08-08T22:32:19.261Z,90.90
2017-08-08T22:34:46.500Z,90.90
2017-08-08T22:37:13.825Z,90.90
2017-08-08T22:39:40.752Z,90.90
2017-08-08T22:42:07.792Z,91.10
2017-08-08T22:44:34.656Z,91.10
2017-08-08T22:47:02.066Z,91.00
2017-08-08T22:49:29.024Z,91.20
2017-08-08T22:51:56.232Z,90.70
2017-08-08T22:54:23.618Z,90.60
2017-08-08T22:56:50.482Z,90.60
2017-08-08T22:59:17.476Z,90.90
2017-08-08T23:01:44.650Z,90.90
2017-08-08T23:04:11.809Z,90.90
2017-08-08T23:06:38.695Z,90.90
2017-08-08T23:09:06.337Z,91.00
2017-08-08T23:11:34.279Z,90.90
2017-08-08T23:14:03.879Z,90.80
2017-08-08T23:16:31.098Z,90.90
2017-08-08T23:18:58.944Z,90.80
2017-08-08T23:21:25.745Z,90.80
2017-08-08T23:23:52.612Z,90.70
2017-08-08T23:26:19.775Z,90.70
2017-08-08T23:28:47.006Z,90.90
2017-08-08T23:31:14.362Z,90.30
2017-08-08T23:33:41.654Z,90.50
2017-08-08T23:36:08.722Z,90.60
2017-08-08T23:38:35.563Z,90.80
2017-08-08T23:41:02.427Z,91.00
2017-08-08T23:43:29.576Z,90.70
2017-08-08T23:45:56.954Z,90.80
2017-08-08T23:48:24.255Z,90.90
2017-08-08T23:50:51.671Z,91.10
2017-08-08T23:53:19.227Z,90.90
2017-08-08T23:55:46.208Z,90.90
2017-08-08T23:58:13.053Z,90.90
